Time;durP1;ratioP1;P1;durP2;ratioP2;P2;SDS_P1;SDS_P2;PMS_P1;PMS_P2;Temp;Humidity;BMP_temperature;BMP_pressure;BME280_temperature;BME280_humidity;BME280_pressure;Samples;Min_cycle;Max_cycle;Signal;HPM_P1;HPM_P2
2022/06/22 00:00:03;;;;;;;;;;;16.90;66.90;;;;;;5053322;28;19982;-82
2022/06/22 00:02:30;;;;;;;;;;;16.70;67.30;;;;;;5050717;28;19971;-82
2022/06/22 00:04:57;;;;;;;;;;;16.70;67.70;;;;;;5051264;28;19967;-82
2022/06/22 00:07:23;;;;;;;;;;;16.70;67.20;;;;;;5050497;28;19936;-81
2022/06/22 00:09:52;;;;;;;;;;;16.60;67.90;;;;;;5045123;28;20319;-81
2022/06/22 00:12:21;;;;;;;;;;;16.60;67.60;;;;;;5044333;28;20638;-81
2022/06/22 00:14:47;;;;;;;;;;;16.60;67.60;;;;;;5031480;28;19913;-81
2022/06/22 00:17:21;;;;;;;;;;;16.60;67.50;;;;;;5047567;28;19978;-82
2022/06/22 00:19:47;;;;;;;;;;;16.50;68.10;;;;;;5038694;28;19917;-82
2022/06/22 00:22:21;;;;;;;;;;;16.50;68.50;;;;;;5047569;28;19924;-82
2022/06/22 00:24:54;;;;;;;;;;;16.50;68.30;;;;;;5032952;28;19913;-82
2022/06/22 00:27:30;;;;;;;;;;;16.50;68.80;;;;;;5049730;28;19959;-82
2022/06/22 00:30:01;;;;;;;;;;;16.50;68.50;;;;;;5028976;28;19919;-82
2022/06/22 00:32:27;;;;;;;;;;;16.40;68.80;;;;;;5032175;28;20382;-82
2022/06/22 00:34:53;;;;;;;;;;;16.40;69.30;;;;;;5047679;28;19913;-82
2022/06/22 00:37:22;;;;;;;;;;;16.40;68.80;;;;;;5026702;28;20393;-82
2022/06/22 00:39:48;;;;;;;;;;;16.40;69.30;;;;;;5051658;28;19913;-82
2022/06/22 00:42:33;;;;;;;;;;;16.30;68.60;;;;;;5024944;28;19913;-82
2022/06/22 00:45:04;;;;;;;;;;;16.40;69.30;;;;;;5026245;28;19917;-82
2022/06/22 00:47:35;;;;;;;;;;;16.30;69.40;;;;;;5027797;28;20402;-82
2022/06/22 00:50:04;;;;;;;;;;;16.30;69.70;;;;;;5045597;28;19920;-82
2022/06/22 00:52:34;;;;;;;;;;;16.20;69.80;;;;;;5046321;28;19921;-82
2022/06/22 00:55:00;;;;;;;;;;;16.20;69.90;;;;;;5045916;28;19920;-81
2022/06/22 00:57:30;;;;;;;;;;;16.20;69.50;;;;;;5031015;28;19966;-82
2022/06/22 01:00:13;;;;;;;;;;;16.20;69.60;;;;;;5029048;28;20318;-81
2022/06/22 01:02:46;;;;;;;;;;;16.20;69.50;;;;;;5051478;28;19924;-82
2022/06/22 01:05:17;;;;;;;;;;;16.10;69.30;;;;;;5027906;28;19987;-82
2022/06/22 01:07:43;;;;;;;;;;;16.10;69.60;;;;;;5025914;28;20007;-83
2022/06/22 01:10:08;;;;;;;;;;;16.00;70.50;;;;;;5042839;28;19924;-81
2022/06/22 01:12:38;;;;;;;;;;;16.10;70.20;;;;;;5034729;28;20379;-82
2022/06/22 01:15:07;;;;;;;;;;;16.00;70.40;;;;;;5037653;28;20295;-82
2022/06/22 01:17:45;;;;;;;;;;;16.10;69.30;;;;;;5029334;28;19933;-81
2022/06/22 01:20:21;;;;;;;;;;;16.10;68.90;;;;;;5034385;28;19975;-82
2022/06/22 01:22:52;;;;;;;;;;;15.90;69.40;;;;;;5049192;28;19935;-82
2022/06/22 01:25:43;;;;;;;;;;;15.60;70.10;;;;;;5046987;28;19913;-82
2022/06/22 01:28:10;;;;;;;;;;;15.50;70.30;;;;;;5030259;28;19956;-82
2022/06/22 01:30:41;;;;;;;;;;;15.50;70.60;;;;;;5048868;28;19925;-82
2022/06/22 01:33:08;;;;;;;;;;;15.50;71.10;;;;;;5034423;28;20536;-82
2022/06/22 01:35:34;;;;;;;;;;;15.30;72.20;;;;;;5044876;28;19916;-82
2022/06/22 01:38:10;;;;;;;;;;;15.30;72.40;;;;;;5029355;28;19913;-82
2022/06/22 01:40:45;;;;;;;;;;;15.20;72.60;;;;;;5041321;28;19923;-82
2022/06/22 01:43:24;;;;;;;;;;;15.30;72.70;;;;;;5024626;28;19913;-82
2022/06/22 01:45:55;;;;;;;;;;;15.30;72.90;;;;;;5045342;28;19913;-82
2022/06/22 01:48:20;;;;;;;;;;;15.30;73.20;;;;;;5052436;28;19920;-82
2022/06/22 01:51:09;;;;;;;;;;;15.30;72.80;;;;;;5032067;28;19916;-82
2022/06/22 01:53:40;;;;;;;;;;;15.30;71.30;;;;;;5047307;28;19921;-81
2022/06/22 01:56:18;;;;;;;;;;;15.30;71.10;;;;;;5041547;28;19991;-82
2022/06/22 01:59:01;;;;;;;;;;;15.30;70.20;;;;;;5029875;28;19920;-81
2022/06/22 02:01:28;;;;;;;;;;;15.30;71.00;;;;;;5042707;28;20015;-81
2022/06/22 02:04:13;;;;;;;;;;;15.40;68.80;;;;;;5028344;28;20282;-81
2022/06/22 02:09:34;;;;;;;;;;;15.80;67.10;;;;;;5039720;28;19962;-82
2022/06/22 02:14:46;;;;;;;;;;;15.50;68.70;;;;;;5035951;28;20390;-81
2022/06/22 02:17:12;;;;;;;;;;;15.50;67.70;;;;;;5048261;28;20228;-82
2022/06/22 02:19:38;;;;;;;;;;;15.60;67.00;;;;;;5026503;28;19924;-81
2022/06/22 02:22:04;;;;;;;;;;;15.50;67.60;;;;;;5042619;28;19947;-81
2022/06/22 02:24:44;;;;;;;;;;;15.50;67.70;;;;;;5032183;28;19963;-81
2022/06/22 02:27:16;;;;;;;;;;;15.60;67.00;;;;;;5027614;28;19987;-81
2022/06/22 02:29:43;;;;;;;;;;;15.60;66.70;;;;;;5023348;28;20003;-82
2022/06/22 02:32:10;;;;;;;;;;;15.60;67.30;;;;;;5046805;28;19945;-82
2022/06/22 02:34:38;;;;;;;;;;;15.40;67.10;;;;;;5036106;28;20340;-81
2022/06/22 02:37:05;;;;;;;;;;;15.50;66.80;;;;;;5043828;28;19923;-81
2022/06/22 02:39:32;;;;;;;;;;;15.60;65.90;;;;;;5033808;28;19920;-82
2022/06/22 02:44:45;;;;;;;;;;;15.50;66.90;;;;;;5046793;28;19931;-82
2022/06/22 02:47:16;;;;;;;;;;;15.50;67.10;;;;;;5048612;28;19913;-81
2022/06/22 02:49:44;;;;;;;;;;;15.50;66.90;;;;;;5035163;28;20715;-82
2022/06/22 02:52:11;;;;;;;;;;;15.40;67.30;;;;;;5017080;28;19913;-82
2022/06/22 02:54:46;;;;;;;;;;;15.40;67.90;;;;;;5040967;28;19956;-82
2022/06/22 02:57:24;;;;;;;;;;;15.30;68.20;;;;;;5049491;28;19912;-82
2022/06/22 02:59:50;;;;;;;;;;;15.10;69.00;;;;;;5046872;28;19932;-82
2022/06/22 03:02:16;;;;;;;;;;;15.00;69.50;;;;;;5043684;28;19921;-82
2022/06/22 03:04:42;;;;;;;;;;;15.00;69.60;;;;;;5038432;28;20244;-82
2022/06/22 03:07:08;;;;;;;;;;;15.00;69.70;;;;;;5024883;28;20355;-82
2022/06/22 03:09:34;;;;;;;;;;;15.00;70.00;;;;;;5026075;28;19967;-82
2022/06/22 03:11:59;;;;;;;;;;;15.00;70.50;;;;;;5048749;28;19956;-82
2022/06/22 03:14:28;;;;;;;;;;;15.00;70.60;;;;;;5044508;28;19993;-82
2022/06/22 03:16:56;;;;;;;;;;;15.00;70.80;;;;;;5034988;28;19913;-82
2022/06/22 03:19:25;;;;;;;;;;;15.00;70.80;;;;;;5049009;28;19921;-82
2022/06/22 03:21:51;;;;;;;;;;;15.00;70.70;;;;;;5034062;28;19917;-82
2022/06/22 03:24:24;;;;;;;;;;;15.00;70.80;;;;;;5047684;28;20359;-83
2022/06/22 03:26:55;;;;;;;;;;;14.90;71.10;;;;;;5036547;28;20004;-82
2022/06/22 03:29:26;;;;;;;;;;;14.90;71.60;;;;;;5033695;28;19913;-81
2022/06/22 03:32:00;;;;;;;;;;;14.90;71.80;;;;;;5038963;28;19927;-82
2022/06/22 03:34:28;;;;;;;;;;;14.80;71.50;;;;;;5066109;22;19936;-79
2022/06/22 03:36:59;;;;;;;;;;;14.80;71.50;;;;;;5009962;28;20328;-81
2022/06/22 03:39:28;;;;;;;;;;;14.80;71.90;;;;;;5017407;28;20346;-79
2022/06/22 03:41:58;;;;;;;;;;;14.70;72.10;;;;;;5013032;28;19989;-79
2022/06/22 03:44:27;;;;;;;;;;;14.70;72.50;;;;;;5032778;28;20012;-79
2022/06/22 03:46:54;;;;;;;;;;;14.70;72.30;;;;;;5014243;28;20605;-79
2022/06/22 03:49:32;;;;;;;;;;;14.70;72.50;;;;;;5029262;28;19999;-79
2022/06/22 03:52:07;;;;;;;;;;;14.80;72.20;;;;;;5013255;28;19988;-79
2022/06/22 03:54:49;;;;;;;;;;;14.80;73.00;;;;;;5027656;28;19936;-79
2022/06/22 03:57:16;;;;;;;;;;;14.80;73.00;;;;;;5010107;28;19989;-79
2022/06/22 03:59:44;;;;;;;;;;;14.70;73.10;;;;;;5029567;28;19913;-79
2022/06/22 04:02:10;;;;;;;;;;;14.80;73.40;;;;;;5024797;28;20377;-79
2022/06/22 04:04:36;;;;;;;;;;;14.80;73.20;;;;;;5032666;28;19920;-79
2022/06/22 04:07:01;;;;;;;;;;;14.80;72.60;;;;;;5007814;28;19913;-80
2022/06/22 04:09:28;;;;;;;;;;;14.70;72.70;;;;;;5005579;28;19983;-80
2022/06/22 04:12:01;;;;;;;;;;;14.80;72.10;;;;;;5026653;28;19955;-79
2022/06/22 04:14:36;;;;;;;;;;;14.80;71.80;;;;;;5026710;28;20385;-79
2022/06/22 04:17:04;;;;;;;;;;;15.00;70.40;;;;;;5010694;28;19921;-79
2022/06/22 04:19:41;;;;;;;;;;;14.90;70.50;;;;;;5017463;28;20011;-79
2022/06/22 04:22:08;;;;;;;;;;;15.00;71.00;;;;;;5015774;28;19917;-80
2022/06/22 04:24:46;;;;;;;;;;;15.00;71.30;;;;;;5019355;28;20273;-79
2022/06/22 04:27:22;;;;;;;;;;;15.00;70.40;;;;;;5015406;28;19913;-80
2022/06/22 04:29:52;;;;;;;;;;;15.10;70.60;;;;;;5012691;28;19917;-79
2022/06/22 04:32:33;;;;;;;;;;;15.10;70.70;;;;;;5009655;28;19924;-79
2022/06/22 04:35:20;;;;;;;;;;;15.10;70.70;;;;;;5010050;28;20404;-80
2022/06/22 04:37:55;;;;;;;;;;;15.30;69.70;;;;;;5011076;28;20514;-79
2022/06/22 04:40:27;;;;;;;;;;;15.30;70.40;;;;;;5024828;28;19925;-79
2022/06/22 04:42:55;;;;;;;;;;;15.40;70.90;;;;;;5013078;28;20288;-80
2022/06/22 04:45:46;;;;;;;;;;;15.40;71.60;;;;;;5001433;28;19913;-79
2022/06/22 04:48:14;;;;;;;;;;;15.50;72.10;;;;;;5017708;28;19917;-80
2022/06/22 04:50:41;;;;;;;;;;;15.60;71.70;;;;;;5020342;28;19999;-79
2022/06/22 04:53:10;;;;;;;;;;;15.60;72.20;;;;;;5014081;28;19928;-79
2022/06/22 04:55:38;;;;;;;;;;;15.70;72.10;;;;;;5022716;28;19941;-83
2022/06/22 04:58:21;;;;;;;;;;;15.80;72.40;;;;;;5027011;28;19940;-83
2022/06/22 05:00:47;;;;;;;;;;;16.00;71.90;;;;;;5010324;28;19921;-86
2022/06/22 05:03:13;;;;;;;;;;;16.00;71.10;;;;;;5012477;28;19913;-82
2022/06/22 05:05:39;;;;;;;;;;;16.10;70.80;;;;;;5041170;28;19984;-86
2022/06/22 05:08:30;;;;;;;;;;;16.20;70.70;;;;;;5042808;28;19913;-86
2022/06/22 05:10:58;;;;;;;;;;;16.30;70.90;;;;;;5017716;28;19921;-87
2022/06/22 05:13:28;;;;;;;;;;;16.20;69.90;;;;;;5017370;28;19910;-85
2022/06/22 05:15:55;;;;;;;;;;;16.20;71.20;;;;;;5006707;28;19920;-86
2022/06/22 05:18:24;;;;;;;;;;;16.20;71.20;;;;;;5031921;28;20359;-88
2022/06/22 05:21:02;;;;;;;;;;;16.20;71.50;;;;;;5001607;28;19921;-84
2022/06/22 05:23:31;;;;;;;;;;;16.20;70.20;;;;;;5025184;28;19924;-87
2022/06/22 05:26:00;;;;;;;;;;;16.30;69.50;;;;;;4998557;28;19914;-83
2022/06/22 05:28:26;;;;;;;;;;;16.30;70.40;;;;;;5002250;28;19919;-80
2022/06/22 05:31:09;;;;;;;;;;;16.40;70.50;;;;;;5018129;28;19913;-79
2022/06/22 05:33:36;;;;;;;;;;;16.50;69.00;;;;;;5002948;28;19959;-81
2022/06/22 05:36:03;;;;;;;;;;;16.50;69.60;;;;;;5002148;28;19924;-80
2022/06/22 05:38:30;;;;;;;;;;;16.50;68.70;;;;;;5011780;28;19913;-80
2022/06/22 05:40:56;;;;;;;;;;;16.60;70.00;;;;;;5023249;28;19967;-80
2022/06/22 05:43:22;;;;;;;;;;;16.70;69.30;;;;;;5027098;28;19917;-82
2022/06/22 05:45:54;;;;;;;;;;;16.80;69.10;;;;;;5029866;28;19928;-80
2022/06/22 05:48:23;;;;;;;;;;;16.90;67.80;;;;;;5016127;28;19974;-81
2022/06/22 05:50:48;;;;;;;;;;;16.90;67.70;;;;;;5018269;28;20409;-79
2022/06/22 05:53:17;;;;;;;;;;;17.00;67.50;;;;;;5015274;28;19932;-81
2022/06/22 05:55:42;;;;;;;;;;;17.00;67.70;;;;;;5015839;28;19910;-81
2022/06/22 05:58:24;;;;;;;;;;;17.00;66.60;;;;;;5035009;28;19916;-79
2022/06/22 06:00:51;;;;;;;;;;;17.10;67.10;;;;;;5007730;28;20401;-82
2022/06/22 06:03:20;;;;;;;;;;;17.10;68.10;;;;;;5007363;28;20270;-79
2022/06/22 06:05:48;;;;;;;;;;;17.30;66.90;;;;;;5027098;28;19909;-80
2022/06/22 06:08:21;;;;;;;;;;;17.20;66.50;;;;;;4995949;28;19957;-81
2022/06/22 06:10:46;;;;;;;;;;;17.30;67.20;;;;;;4997317;28;19918;-80
2022/06/22 06:13:38;;;;;;;;;;;17.60;65.20;;;;;;5020001;28;19960;-80
2022/06/22 06:16:07;;;;;;;;;;;17.60;65.30;;;;;;5006852;28;19937;-80
2022/06/22 06:18:35;;;;;;;;;;;17.60;65.20;;;;;;5012322;28;20551;-80
2022/06/22 06:21:21;;;;;;;;;;;17.60;64.90;;;;;;5032661;28;19936;-80
2022/06/22 06:23:57;;;;;;;;;;;17.80;63.80;;;;;;5031615;28;19917;-80
2022/06/22 06:29:39;;;;;;;;;;;17.80;64.20;;;;;;5001064;28;19920;-80
2022/06/22 06:32:24;;;;;;;;;;;17.90;64.00;;;;;;5008342;28;19924;-81
2022/06/22 06:35:01;;;;;;;;;;;18.00;63.30;;;;;;5010538;28;20546;-79
2022/06/22 06:37:26;;;;;;;;;;;18.20;61.40;;;;;;5013457;28;19914;-79
2022/06/22 06:39:53;;;;;;;;;;;18.30;61.40;;;;;;4999119;28;19940;-77
2022/06/22 06:42:29;;;;;;;;;;;18.30;62.00;;;;;;5013713;28;19986;-79
2022/06/22 06:44:56;;;;;;;;;;;18.20;62.20;;;;;;5032333;28;19963;-80
2022/06/22 06:47:26;;;;;;;;;;;18.10;63.20;;;;;;5030908;28;19913;-79
2022/06/22 06:49:56;;;;;;;;;;;18.20;63.10;;;;;;5024898;28;19913;-80
2022/06/22 06:52:31;;;;;;;;;;;18.30;63.40;;;;;;5008943;28;20440;-80
2022/06/22 06:55:03;;;;;;;;;;;18.30;62.90;;;;;;5022208;28;19925;-79
2022/06/22 06:57:29;;;;;;;;;;;18.40;61.80;;;;;;4995725;28;19952;-79
2022/06/22 06:59:57;;;;;;;;;;;18.50;62.10;;;;;;5014584;28;20273;-78
2022/06/22 07:02:23;;;;;;;;;;;18.50;62.50;;;;;;5006570;28;19917;-77
2022/06/22 07:04:48;;;;;;;;;;;18.70;62.90;;;;;;4996462;28;19917;-78
2022/06/22 07:07:32;;;;;;;;;;;18.90;63.50;;;;;;5015241;28;19913;-78
2022/06/22 07:10:00;;;;;;;;;;;18.80;63.10;;;;;;5019697;28;19921;-79
2022/06/22 07:12:28;;;;;;;;;;;18.90;63.30;;;;;;5031737;28;19913;-76
2022/06/22 07:14:54;;;;;;;;;;;18.90;62.90;;;;;;5017451;28;20592;-78
2022/06/22 07:17:21;;;;;;;;;;;19.00;62.80;;;;;;5035507;28;19913;-77
2022/06/22 07:19:47;;;;;;;;;;;19.00;62.50;;;;;;5023876;28;19929;-78
2022/06/22 07:22:19;;;;;;;;;;;19.10;62.20;;;;;;5024676;28;19917;-79
2022/06/22 07:24:48;;;;;;;;;;;19.20;61.10;;;;;;5000096;28;20004;-77
2022/06/22 07:27:25;;;;;;;;;;;19.10;61.30;;;;;;5021427;28;20396;-78
2022/06/22 07:30:01;;;;;;;;;;;19.20;61.60;;;;;;5030274;28;19909;-78
2022/06/22 07:32:37;;;;;;;;;;;19.10;61.30;;;;;;5014319;28;20027;-79
2022/06/22 07:35:08;;;;;;;;;;;19.00;62.30;;;;;;5034120;28;19960;-78
2022/06/22 07:37:36;;;;;;;;;;;19.10;61.90;;;;;;5041599;28;19913;-77
2022/06/22 07:40:05;;;;;;;;;;;19.20;61.80;;;;;;5031900;28;20549;-79
2022/06/22 07:42:30;;;;;;;;;;;19.30;61.30;;;;;;5031992;28;19925;-79
2022/06/22 07:44:56;;;;;;;;;;;19.30;63.00;;;;;;5013950;28;19913;-80
2022/06/22 07:47:33;;;;;;;;;;;19.40;62.10;;;;;;5015255;28;19935;-80
2022/06/22 07:50:11;;;;;;;;;;;19.50;61.30;;;;;;5016652;28;19913;-82
2022/06/22 07:52:47;;;;;;;;;;;19.60;61.50;;;;;;5014343;28;19963;-80
2022/06/22 07:55:21;;;;;;;;;;;19.80;61.00;;;;;;5025891;28;19913;-82
2022/06/22 07:58:09;;;;;;;;;;;19.80;60.40;;;;;;5012077;28;20397;-82
2022/06/22 08:00:38;;;;;;;;;;;19.90;60.50;;;;;;5013549;28;19928;-81
2022/06/22 08:03:14;;;;;;;;;;;19.90;59.00;;;;;;5009707;28;19921;-81
2022/06/22 08:05:42;;;;;;;;;;;19.90;59.70;;;;;;5024391;28;19944;-79
2022/06/22 08:08:16;;;;;;;;;;;20.10;59.50;;;;;;5034789;28;19989;-80
2022/06/22 08:11:00;;;;;;;;;;;20.20;59.90;;;;;;5033155;28;20004;-81
2022/06/22 08:13:33;;;;;;;;;;;20.20;59.60;;;;;;5027218;28;20404;-81
2022/06/22 08:16:05;;;;;;;;;;;20.10;59.60;;;;;;5015868;28;19910;-81
2022/06/22 08:18:30;;;;;;;;;;;20.30;59.60;;;;;;5035548;28;19909;-78
2022/06/22 08:20:57;;;;;;;;;;;20.40;59.30;;;;;;5034940;28;20532;-83
2022/06/22 08:23:32;;;;;;;;;;;20.40;58.90;;;;;;5034254;28;19910;-82
2022/06/22 08:25:57;;;;;;;;;;;20.50;58.30;;;;;;5009858;28;20448;-80
2022/06/22 08:28:24;;;;;;;;;;;20.50;58.30;;;;;;5004276;28;19913;-82
2022/06/22 08:30:50;;;;;;;;;;;20.60;57.50;;;;;;5002335;28;19948;-83
2022/06/22 08:33:25;;;;;;;;;;;20.60;58.30;;;;;;5005776;28;20008;-79
2022/06/22 08:36:17;;;;;;;;;;;20.60;57.90;;;;;;5019254;28;19951;-82
2022/06/22 08:38:54;;;;;;;;;;;20.80;56.90;;;;;;5023618;28;19914;-81
2022/06/22 08:41:26;;;;;;;;;;;20.80;56.80;;;;;;5032371;28;19987;-84
2022/06/22 08:44:17;;;;;;;;;;;20.80;56.70;;;;;;5031578;28;19928;-81
2022/06/22 08:46:49;;;;;;;;;;;21.10;55.00;;;;;;5046288;28;19913;-82
2022/06/22 08:49:21;;;;;;;;;;;21.00;56.70;;;;;;5016865;28;19992;-82
2022/06/22 08:51:46;;;;;;;;;;;21.00;56.10;;;;;;5009918;28;19927;-80
2022/06/22 08:54:29;;;;;;;;;;;21.10;55.60;;;;;;5014118;28;20335;-84
2022/06/22 08:57:01;;;;;;;;;;;21.20;55.10;;;;;;5019671;28;19924;-82
2022/06/22 08:59:33;;;;;;;;;;;21.20;54.40;;;;;;5022309;28;19921;-81
2022/06/22 09:02:01;;;;;;;;;;;21.40;54.70;;;;;;5024952;28;19917;-82
2022/06/22 09:04:51;;;;;;;;;;;21.30;56.10;;;;;;5025661;28;19980;-82
2022/06/22 09:07:40;;;;;;;;;;;21.30;55.80;;;;;;5007311;28;19917;-82
2022/06/22 09:10:15;;;;;;;;;;;21.40;54.60;;;;;;5005833;28;19917;-83
2022/06/22 09:13:07;;;;;;;;;;;21.40;54.00;;;;;;5026740;28;19959;-83
2022/06/22 09:15:35;;;;;;;;;;;21.60;53.80;;;;;;5028665;28;19909;-81
2022/06/22 09:18:08;;;;;;;;;;;21.70;52.40;;;;;;5012529;28;19928;-81
2022/06/22 09:20:44;;;;;;;;;;;21.60;52.60;;;;;;4993676;28;19924;-82
2022/06/22 09:23:31;;;;;;;;;;;21.70;54.20;;;;;;5009022;28;20393;-81
2022/06/22 09:26:02;;;;;;;;;;;21.80;53.90;;;;;;5029401;28;20036;-82
2022/06/22 09:28:48;;;;;;;;;;;21.90;53.30;;;;;;5015438;28;19920;-81
2022/06/22 09:31:32;;;;;;;;;;;22.00;52.70;;;;;;4972948;28;19913;-82
2022/06/22 09:34:07;;;;;;;;;;;22.10;52.60;;;;;;5013452;28;19913;-78
2022/06/22 09:36:50;;;;;;;;;;;22.00;51.60;;;;;;5022588;28;20000;-80
2022/06/22 09:39:15;;;;;;;;;;;22.10;52.30;;;;;;5030505;28;20397;-80
2022/06/22 09:41:55;;;;;;;;;;;22.10;52.30;;;;;;5014617;28;19917;-78
2022/06/22 09:44:21;;;;;;;;;;;22.30;50.80;;;;;;5025777;28;20385;-80
2022/06/22 09:47:05;;;;;;;;;;;22.30;49.50;;;;;;5030382;28;19913;-79
2022/06/22 09:49:51;;;;;;;;;;;22.20;50.00;;;;;;5011682;28;20395;-80
2022/06/22 09:52:34;;;;;;;;;;;22.20;51.50;;;;;;5009096;28;19917;-80
2022/06/22 09:58:02;;;;;;;;;;;22.30;51.60;;;;;;5030347;28;20292;-80
2022/06/22 10:00:36;;;;;;;;;;;22.40;50.00;;;;;;5017469;28;19970;-82
2022/06/22 10:03:17;;;;;;;;;;;22.50;48.90;;;;;;5015851;28;19917;-82
2022/06/22 10:06:01;;;;;;;;;;;22.40;49.80;;;;;;5030778;28;20030;-81
2022/06/22 10:08:38;;;;;;;;;;;22.30;50.20;;;;;;5011563;28;19924;-79
2022/06/22 10:11:22;;;;;;;;;;;22.60;49.60;;;;;;5012321;28;19923;-81
2022/06/22 10:13:57;;;;;;;;;;;22.50;48.80;;;;;;5015580;28;19968;-80
2022/06/22 10:16:28;;;;;;;;;;;22.60;49.40;;;;;;5029232;28;19909;-79
2022/06/22 10:18:57;;;;;;;;;;;22.80;48.80;;;;;;4993845;28;19917;-80
2022/06/22 10:21:35;;;;;;;;;;;22.90;49.30;;;;;;5012569;28;19981;-81
2022/06/22 10:24:19;;;;;;;;;;;22.90;48.60;;;;;;5017875;28;19913;-78
2022/06/22 10:26:47;;;;;;;;;;;23.00;48.20;;;;;;5006306;28;19919;-81
2022/06/22 10:29:13;;;;;;;;;;;23.20;46.20;;;;;;5010778;28;19922;-80
2022/06/22 10:31:58;;;;;;;;;;;23.00;48.00;;;;;;5028212;28;19985;-79
2022/06/22 10:34:33;;;;;;;;;;;23.10;47.40;;;;;;5027253;28;19983;-80
2022/06/22 10:37:17;;;;;;;;;;;23.00;49.30;;;;;;5033297;28;19909;-79
2022/06/22 10:40:02;;;;;;;;;;;23.10;48.40;;;;;;5044277;28;19928;-78
2022/06/22 10:45:33;;;;;;;;;;;23.20;48.10;;;;;;5018339;28;19976;-81
2022/06/22 10:48:12;;;;;;;;;;;23.20;47.60;;;;;;5031359;28;19960;-80
2022/06/22 10:50:50;;;;;;;;;;;23.20;46.90;;;;;;5018084;28;19909;-81
2022/06/22 10:53:15;;;;;;;;;;;23.10;47.60;;;;;;5015401;28;19990;-80
2022/06/22 10:55:44;;;;;;;;;;;23.30;46.60;;;;;;5020629;28;19953;-79
2022/06/22 10:58:29;;;;;;;;;;;23.40;47.40;;;;;;5033401;28;20436;-80
2022/06/22 11:01:08;;;;;;;;;;;23.30;47.00;;;;;;5035315;28;20431;-79
2022/06/22 11:03:53;;;;;;;;;;;23.30;47.10;;;;;;5013711;28;20365;-80
2022/06/22 11:06:37;;;;;;;;;;;23.60;46.90;;;;;;5009548;28;19960;-80
2022/06/22 11:09:26;;;;;;;;;;;23.70;46.10;;;;;;5014601;28;19921;-79
2022/06/22 11:12:07;;;;;;;;;;;23.80;46.30;;;;;;5032781;28;20006;-79
2022/06/22 11:14:48;;;;;;;;;;;23.70;45.50;;;;;;5011579;28;20328;-80
2022/06/22 11:17:19;;;;;;;;;;;23.60;45.80;;;;;;5023765;28;19975;-77
2022/06/22 11:19:45;;;;;;;;;;;23.70;45.50;;;;;;5021290;28;19921;-80
2022/06/22 11:22:19;;;;;;;;;;;23.70;46.30;;;;;;5008355;28;20270;-79
2022/06/22 11:24:57;;;;;;;;;;;23.90;45.80;;;;;;5016545;28;19909;-81
2022/06/22 11:30:51;;;;;;;;;;;23.90;45.10;;;;;;5031032;28;19920;-79
2022/06/22 11:33:37;;;;;;;;;;;23.90;45.80;;;;;;5008555;28;19917;-78
2022/06/22 11:36:21;;;;;;;;;;;24.10;44.20;;;;;;5026986;28;19957;-79
2022/06/22 11:39:02;;;;;;;;;;;24.20;42.90;;;;;;5015055;28;19976;-80
2022/06/22 11:41:30;;;;;;;;;;;24.00;44.10;;;;;;5034295;28;20011;-81
2022/06/22 11:44:06;;;;;;;;;;;24.00;43.50;;;;;;4999944;28;20595;-81
2022/06/22 11:46:50;;;;;;;;;;;23.90;43.70;;;;;;5015452;28;19914;-80
2022/06/22 11:49:35;;;;;;;;;;;24.00;44.60;;;;;;5002065;28;20350;-82
2022/06/22 11:52:25;;;;;;;;;;;24.10;43.80;;;;;;5014155;28;19913;-80
2022/06/22 11:54:51;;;;;;;;;;;24.00;43.90;;;;;;5016686;28;19996;-81
2022/06/22 11:57:19;;;;;;;;;;;23.90;44.00;;;;;;5043505;28;19920;-83
2022/06/22 11:59:57;;;;;;;;;;;24.10;45.70;;;;;;5023669;28;19977;-83
2022/06/22 12:02:47;;;;;;;;;;;24.10;45.50;;;;;;5018717;28;19945;-82
2022/06/22 12:05:21;;;;;;;;;;;24.30;43.80;;;;;;5007535;28;19910;-82
2022/06/22 12:07:47;;;;;;;;;;;24.30;44.10;;;;;;5006225;28;19945;-83
2022/06/22 12:10:28;;;;;;;;;;;24.30;43.40;;;;;;5007261;28;19924;-83
2022/06/22 12:12:58;;;;;;;;;;;24.30;42.80;;;;;;5006051;28;20020;-83
2022/06/22 12:15:31;;;;;;;;;;;24.30;44.20;;;;;;5030431;28;19920;-84
2022/06/22 12:18:08;;;;;;;;;;;24.30;44.10;;;;;;5023239;28;19956;-85
2022/06/22 12:20:33;;;;;;;;;;;24.40;42.70;;;;;;5018776;28;20309;-83
2022/06/22 12:23:14;;;;;;;;;;;24.50;42.00;;;;;;5012590;28;19917;-84
2022/06/22 12:25:39;;;;;;;;;;;24.50;42.90;;;;;;5021925;28;19979;-84
2022/06/22 12:28:13;;;;;;;;;;;24.50;42.70;;;;;;5041553;28;19926;-84
2022/06/22 12:30:43;;;;;;;;;;;24.40;42.30;;;;;;5022203;28;19913;-81
2022/06/22 12:33:45;;;;;;;;;;;24.50;43.30;;;;;;5022280;28;19988;-81
2022/06/22 12:36:14;;;;;;;;;;;24.70;43.10;;;;;;4956268;28;20676;-83
2022/06/22 12:38:42;;;;;;;;;;;24.90;42.00;;;;;;5010912;28;19909;-82
2022/06/22 12:41:19;;;;;;;;;;;24.90;42.10;;;;;;5000099;28;19917;-83
2022/06/22 12:43:54;;;;;;;;;;;24.80;42.40;;;;;;5021539;28;19917;-81
2022/06/22 12:46:19;;;;;;;;;;;24.80;42.90;;;;;;5018369;28;20480;-83
2022/06/22 12:48:54;;;;;;;;;;;25.00;41.10;;;;;;5012479;28;19941;-80
2022/06/22 12:51:26;;;;;;;;;;;24.90;43.10;;;;;;4997577;28;19935;-83
2022/06/22 12:54:12;;;;;;;;;;;25.00;42.60;;;;;;5027146;28;19917;-84
2022/06/22 12:56:41;;;;;;;;;;;25.10;40.80;;;;;;5009220;28;19984;-83
2022/06/22 12:59:36;;;;;;;;;;;24.90;42.50;;;;;;5015625;28;19917;-82
2022/06/22 13:02:13;;;;;;;;;;;25.00;41.10;;;;;;5002379;28;19940;-82
2022/06/22 13:04:42;;;;;;;;;;;25.00;41.70;;;;;;5017868;28;19967;-84
2022/06/22 13:07:10;;;;;;;;;;;24.80;42.10;;;;;;5039763;28;19917;-83
2022/06/22 13:09:36;;;;;;;;;;;24.80;43.00;;;;;;5031876;28;19967;-84
2022/06/22 13:12:10;;;;;;;;;;;25.00;42.10;;;;;;5010110;28;20010;-83
2022/06/22 13:14:39;;;;;;;;;;;25.10;42.50;;;;;;5008643;28;19956;-84
2022/06/22 13:17:17;;;;;;;;;;;25.20;43.50;;;;;;5033343;28;19920;-85
2022/06/22 13:20:00;;;;;;;;;;;25.20;41.70;;;;;;5016599;28;19928;-85
2022/06/22 13:22:28;;;;;;;;;;;25.30;42.30;;;;;;5018153;28;20004;-85
2022/06/22 13:25:13;;;;;;;;;;;25.30;42.40;;;;;;5016610;28;19913;-84
2022/06/22 13:27:38;;;;;;;;;;;25.20;43.30;;;;;;5027807;28;19921;-83
2022/06/22 13:30:07;;;;;;;;;;;25.10;42.50;;;;;;5018419;28;19913;-84
2022/06/22 13:32:33;;;;;;;;;;;25.20;41.50;;;;;;5012091;28;19913;-85
2022/06/22 13:35:03;;;;;;;;;;;25.30;41.80;;;;;;5042710;28;19968;-85
2022/06/22 13:37:40;;;;;;;;;;;25.30;42.20;;;;;;5021912;28;19946;-84
2022/06/22 13:40:06;;;;;;;;;;;25.30;42.50;;;;;;5024211;28;20641;-83
2022/06/22 13:42:42;;;;;;;;;;;25.30;41.20;;;;;;5038372;28;19976;-84
2022/06/22 13:45:26;;;;;;;;;;;25.40;42.20;;;;;;5019903;28;19921;-83
2022/06/22 13:47:52;;;;;;;;;;;25.40;43.10;;;;;;5015745;28;19913;-84
2022/06/22 13:50:36;;;;;;;;;;;25.30;42.80;;;;;;5032518;28;19909;-85
2022/06/22 13:53:05;;;;;;;;;;;25.50;43.00;;;;;;5024222;28;19924;-83
2022/06/22 13:55:42;;;;;;;;;;;25.50;41.40;;;;;;5016611;28;20284;-81
2022/06/22 13:58:12;;;;;;;;;;;25.50;40.60;;;;;;5018437;28;20374;-81
2022/06/22 14:00:56;;;;;;;;;;;25.60;40.60;;;;;;5026967;28;19913;-81
2022/06/22 14:03:34;;;;;;;;;;;25.50;41.40;;;;;;5014618;28;19960;-81
2022/06/22 14:06:01;;;;;;;;;;;25.40;42.10;;;;;;5016451;28;19913;-79
2022/06/22 14:08:56;;;;;;;;;;;25.40;41.50;;;;;;5006366;28;19917;-80
2022/06/22 14:11:35;;;;;;;;;;;25.40;42.50;;;;;;5005791;28;20326;-82
2022/06/22 14:14:22;;;;;;;;;;;25.50;42.00;;;;;;5024115;28;19964;-93
2022/06/22 14:17:08;;;;;;;;;;;25.80;41.80;;;;;;5034191;28;19917;-91
2022/06/22 14:20:03;;;;;;;;;;;25.80;41.10;;;;;;5039704;28;20369;-93
2022/06/22 14:25:34;;;;;;;;;;;25.90;39.70;;;;;;5009579;28;20277;-86
2022/06/22 14:28:22;;;;;;;;;;;25.80;40.80;;;;;;5007055;28;19909;-88
2022/06/22 14:30:56;;;;;;;;;;;25.80;40.10;;;;;;5028568;28;20218;-88
2022/06/22 14:33:28;;;;;;;;;;;25.60;40.80;;;;;;5032865;28;19932;-87
2022/06/22 14:35:59;;;;;;;;;;;25.60;41.50;;;;;;4996520;28;19914;-88
2022/06/22 14:38:43;;;;;;;;;;;25.60;40.80;;;;;;5011078;28;20036;-91
2022/06/22 14:41:15;;;;;;;;;;;25.60;41.00;;;;;;5012233;28;20376;-87
2022/06/22 14:43:53;;;;;;;;;;;25.60;40.60;;;;;;5028951;28;19916;-85
2022/06/22 14:46:38;;;;;;;;;;;25.60;40.40;;;;;;5004667;28;19948;-83
2022/06/22 14:49:33;;;;;;;;;;;25.70;40.80;;;;;;5000772;28;19914;-88
2022/06/22 14:52:01;;;;;;;;;;;25.90;40.60;;;;;;4972821;28;19909;-83
2022/06/22 14:54:43;;;;;;;;;;;25.90;39.40;;;;;;5001208;28;20360;-82
2022/06/22 14:57:08;;;;;;;;;;;25.90;40.90;;;;;;4978487;28;19917;-87
2022/06/22 14:59:48;;;;;;;;;;;25.90;41.00;;;;;;4975738;28;19953;-85
2022/06/22 15:02:14;;;;;;;;;;;26.00;39.60;;;;;;4984837;28;19918;-86
2022/06/22 15:05:00;;;;;;;;;;;26.10;39.60;;;;;;4984241;28;20238;-84
2022/06/22 15:07:43;;;;;;;;;;;26.10;41.30;;;;;;4963043;28;19918;-84
2022/06/22 15:10:19;;;;;;;;;;;26.00;40.30;;;;;;4965250;28;19929;-82
2022/06/22 15:12:57;;;;;;;;;;;25.90;40.60;;;;;;4974635;28;19920;-84
2022/06/22 15:15:22;;;;;;;;;;;25.90;38.20;;;;;;4990144;28;20227;-85